createdAt,value
2023-02-15T00:01:13.050Z,102719.69
2023-02-15T00:03:58.816Z,102721.56
2023-02-15T00:06:44.293Z,102725.63
2023-02-15T00:09:29.693Z,102713.63
2023-02-15T00:12:16.625Z,102714.59
2023-02-15T00:15:02.250Z,102713.84
2023-02-15T00:17:47.574Z,102711.38
2023-02-15T00:20:33.264Z,102718.91
2023-02-15T00:23:18.947Z,102725.47
2023-02-15T00:26:06.146Z,102726.25
2023-02-15T00:28:52.123Z,102722.69
2023-02-15T00:31:37.653Z,102725.72
2023-02-15T00:34:25.378Z,102712.41
2023-02-15T00:37:11.185Z,102718.91
2023-02-15T00:39:56.643Z,102717.31
2023-02-15T00:42:42.169Z,102710.81
2023-02-15T00:45:27.796Z,102718.78
2023-02-15T00:48:13.092Z,102712.47
2023-02-15T00:51:00.393Z,102703.81
2023-02-15T00:53:45.882Z,102702.19
2023-02-15T00:56:31.193Z,102703.25
2023-02-15T00:59:16.879Z,102697.84
2023-02-15T01:02:02.515Z,102681.91
2023-02-15T01:04:48.085Z,102692.25
2023-02-15T01:07:34.010Z,102678.56
2023-02-15T01:10:19.377Z,102677.78
2023-02-15T01:13:05.241Z,102680.38
2023-02-15T01:15:55.722Z,102670.84
2023-02-15T01:18:41.067Z,102677.53
2023-02-15T01:21:27.523Z,102680.16
2023-02-15T01:24:14.207Z,102672.94
2023-02-15T01:26:59.667Z,102671.25
2023-02-15T01:29:44.949Z,102675.53
2023-02-15T01:32:30.649Z,102673.00
2023-02-15T01:35:16.035Z,102660.09
2023-02-15T01:38:01.571Z,102658.63
2023-02-15T01:40:46.959Z,102658.78
2023-02-15T01:43:48.294Z,102642.38
2023-02-15T01:46:41.267Z,102644.59
2023-02-15T01:49:28.400Z,102641.84
2023-02-15T01:52:17.163Z,102639.44
2023-02-15T01:55:03.203Z,102632.13
2023-02-15T01:57:48.949Z,102628.09
2023-02-15T02:00:35.164Z,102619.44
2023-02-15T02:03:37.304Z,102618.59
2023-02-15T02:06:25.293Z,102632.22
2023-02-15T02:09:11.217Z,102630.13
2023-02-15T02:11:56.798Z,102610.88
2023-02-15T02:14:43.568Z,102618.63
2023-02-15T02:18:06.193Z,102625.84
2023-02-15T02:21:13.655Z,102635.47
2023-02-15T02:24:24.753Z,102627.38
2023-02-15T02:27:25.480Z,102613.31
2023-02-15T02:30:32.703Z,102634.13
2023-02-15T02:33:33.488Z,102624.94
2023-02-15T02:36:32.531Z,102624.94
2023-02-15T02:39:56.163Z,102615.03
2023-02-15T02:42:55.797Z,102621.03
2023-02-15T02:45:47.254Z,102610.72
2023-02-15T02:48:34.471Z,102610.78
2023-02-15T02:51:22.272Z,102600.66
2023-02-15T02:54:08.711Z,102602.00
2023-02-15T02:56:56.338Z,102595.00
2023-02-15T02:59:48.296Z,102592.78
2023-02-15T03:02:38.833Z,102579.63
2023-02-15T03:05:28.197Z,102589.06
2023-02-15T03:08:22.522Z,102583.91
2023-02-15T03:11:08.380Z,102577.63
2023-02-15T03:13:53.948Z,102590.88
2023-02-15T03:16:42.690Z,102574.34
2023-02-15T03:19:32.349Z,102566.47
2023-02-15T03:22:26.678Z,102569.97
2023-02-15T03:25:22.099Z,102569.13
2023-02-15T03:28:12.195Z,102573.44
2023-02-15T03:31:01.761Z,102561.38
2023-02-15T03:34:02.868Z,102563.06
2023-02-15T03:36:58.905Z,102564.66
2023-02-15T03:40:26.188Z,102566.03
2023-02-15T03:43:11.547Z,102559.97
2023-02-15T03:46:05.459Z,102566.84
2023-02-15T03:48:55.208Z,102558.06
2023-02-15T03:51:44.797Z,102555.53
2023-02-15T03:54:43.197Z,102548.31
2023-02-15T03:57:59.464Z,102531.78
2023-02-15T04:01:18.635Z,102553.31
2023-02-15T04:04:17.647Z,102554.75
2023-02-15T04:07:05.795Z,102561.56
2023-02-15T04:10:10.213Z,102553.94
2023-02-15T04:12:56.846Z,102555.59
2023-02-15T04:16:01.026Z,102549.97
2023-02-15T04:19:05.496Z,102550.16
2023-02-15T04:22:09.562Z,102546.03
2023-02-15T04:25:10.131Z,102548.88
2023-02-15T04:27:55.853Z,102547.50
2023-02-15T04:30:41.353Z,102544.19
2023-02-15T04:33:26.810Z,102542.53
2023-02-15T04:36:12.084Z,102547.81
2023-02-15T04:38:57.491Z,102547.16
2023-02-15T04:41:42.845Z,102537.50
2023-02-15T04:44:28.262Z,102543.84
2023-02-15T04:47:13.849Z,102540.78
2023-02-15T04:49:59.223Z,102539.63
2023-02-15T04:52:44.572Z,102525.69
2023-02-15T04:55:29.964Z,102524.88
2023-02-15T04:58:15.704Z,102527.88
2023-02-15T05:01:01.359Z,102527.22
2023-02-15T05:03:47.157Z,102506.16
2023-02-15T05:06:32.742Z,102505.50
2023-02-15T05:09:18.086Z,102510.75
2023-02-15T05:12:03.969Z,102498.72
2023-02-15T05:14:49.299Z,102507.47
2023-02-15T05:17:34.783Z,102492.84
2023-02-15T05:20:20.148Z,102487.38
2023-02-15T05:23:05.703Z,102491.75
2023-02-15T05:26:10.315Z,102493.69
2023-02-15T05:28:55.938Z,102485.25
2023-02-15T05:31:41.763Z,102492.25
2023-02-15T05:34:27.528Z,102506.72
2023-02-15T05:37:13.067Z,102493.13
2023-02-15T05:39:58.753Z,102507.84
2023-02-15T05:42:44.242Z,102504.34
2023-02-15T05:45:29.646Z,102500.84
2023-02-15T05:48:15.668Z,102505.41
2023-02-15T05:51:07.190Z,102508.38
2023-02-15T05:53:52.917Z,102511.56
2023-02-15T05:56:38.365Z,102503.31
2023-02-15T05:59:23.938Z,102492.47
2023-02-15T06:02:09.581Z,102490.75
2023-02-15T06:04:54.838Z,102479.22
2023-02-15T06:07:40.344Z,102490.56
2023-02-15T06:10:25.733Z,102480.19
2023-02-15T06:13:11.701Z,102486.94
2023-02-15T06:15:57.406Z,102483.69
2023-02-15T06:18:42.876Z,102482.34
2023-02-15T06:21:28.565Z,102479.66
2023-02-15T06:24:14.013Z,102484.13
2023-02-15T06:26:59.513Z,102477.84
2023-02-15T06:29:45.000Z,102470.22
2023-02-15T06:32:30.597Z,102472.44
2023-02-15T06:35:16.226Z,102477.41
2023-02-15T06:38:02.002Z,102478.19
2023-02-15T06:40:47.746Z,102493.91
2023-02-15T06:43:34.752Z,102485.38
2023-02-15T06:46:20.533Z,102486.31
2023-02-15T06:49:06.439Z,102485.47
2023-02-15T06:51:51.856Z,102491.47
2023-02-15T06:54:37.197Z,102487.84
2023-02-15T06:57:22.519Z,102488.03
2023-02-15T07:00:09.076Z,102486.25
2023-02-15T07:02:59.090Z,102484.56
2023-02-15T07:05:44.550Z,102492.13
2023-02-15T07:08:30.208Z,102475.59
2023-02-15T07:11:34.315Z,102473.00
2023-02-15T07:14:20.255Z,102485.22
2023-02-15T07:17:11.673Z,102483.41
2023-02-15T07:20:00.418Z,102489.84
2023-02-15T07:22:46.597Z,102481.25
2023-02-15T07:25:32.145Z,102485.56
2023-02-15T07:28:17.522Z,102483.13
2023-02-15T07:31:04.850Z,102479.41
2023-02-15T07:33:50.224Z,102461.25
2023-02-15T07:36:35.713Z,102472.50
2023-02-15T07:39:21.151Z,102465.63
2023-02-15T07:42:06.401Z,102458.78
2023-02-15T07:44:53.510Z,102462.13
2023-02-15T07:47:39.189Z,102459.31
2023-02-15T07:50:24.483Z,102456.72
2023-02-15T07:53:10.568Z,102446.38
2023-02-15T07:55:59.991Z,102436.06
2023-02-15T07:58:54.835Z,102446.50
2023-02-15T08:01:40.285Z,102447.28
2023-02-15T08:04:25.718Z,102439.44
2023-02-15T08:07:11.037Z,102444.91
2023-02-15T08:09:56.670Z,102440.44
2023-02-15T08:12:42.289Z,102425.75
2023-02-15T08:15:27.873Z,102423.84
2023-02-15T08:18:13.819Z,102423.66
2023-02-15T08:20:59.298Z,102409.94
2023-02-15T08:23:44.905Z,102412.06
2023-02-15T08:26:31.255Z,102439.63
2023-02-15T08:29:19.100Z,102437.22
2023-02-15T08:32:10.546Z,102426.06
2023-02-15T08:34:56.094Z,102423.41
2023-02-15T08:37:41.557Z,102421.72
2023-02-15T08:40:27.014Z,102432.22
2023-02-15T08:43:12.375Z,102439.44
2023-02-15T08:45:57.947Z,102422.91
2023-02-15T08:48:44.587Z,102406.72
2023-02-15T08:51:33.106Z,102421.69
2023-02-15T08:54:21.572Z,102416.00
2023-02-15T08:57:07.870Z,102403.97
2023-02-15T08:59:55.873Z,102406.78
2023-02-15T09:02:41.260Z,102401.53
2023-02-15T09:05:26.960Z,102391.91
2023-02-15T09:08:12.241Z,102402.22
2023-02-15T09:11:06.815Z,102403.03
2023-02-15T09:14:01.308Z,102404.88
2023-02-15T09:16:49.591Z,102411.16
2023-02-15T09:19:35.468Z,102401.66
2023-02-15T09:22:20.982Z,102395.59
2023-02-15T09:25:06.701Z,102400.16
2023-02-15T09:27:52.462Z,102400.16
2023-02-15T09:30:38.162Z,102409.72
2023-02-15T09:33:26.090Z,102405.66
2023-02-15T09:36:26.069Z,102397.72
2023-02-15T09:39:25.489Z,102393.00
2023-02-15T09:42:16.748Z,102404.34
2023-02-15T09:45:22.675Z,102395.59
2023-02-15T09:48:28.452Z,102399.75
2023-02-15T09:51:38.283Z,102380.66
2023-02-15T09:55:00.766Z,102400.63
2023-02-15T09:57:54.379Z,102405.91
2023-02-15T10:00:48.991Z,102417.16
2023-02-15T10:03:45.663Z,102402.66
2023-02-15T10:06:42.706Z,102400.22
2023-02-15T10:09:40.665Z,102400.22
2023-02-15T10:12:47.357Z,102396.63
2023-02-15T10:15:56.645Z,102401.13
2023-02-15T10:18:42.150Z,102394.19
2023-02-15T10:22:04.757Z,102398.13
2023-02-15T10:25:12.941Z,102394.91
2023-02-15T10:28:16.505Z,102389.91
2023-02-15T10:31:22.152Z,102383.84
2023-02-15T10:34:21.792Z,102381.34
2023-02-15T10:37:44.076Z,102386.66
2023-02-15T10:40:52.841Z,102379.72
2023-02-15T10:43:55.486Z,102370.13
2023-02-15T10:47:09.673Z,102378.75
2023-02-15T10:50:13.798Z,102367.59
2023-02-15T10:53:27.169Z,102377.13
2023-02-15T10:56:25.919Z,102376.28
2023-02-15T10:59:33.865Z,102370.19
2023-02-15T11:02:44.817Z,102368.44
2023-02-15T11:06:00.533Z,102356.28
2023-02-15T11:08:54.945Z,102361.38
2023-02-15T11:11:44.592Z,102358.75
2023-02-15T11:14:38.586Z,102353.56
2023-02-15T11:17:36.411Z,102351.66
2023-02-15T11:20:31.949Z,102352.66
2023-02-15T11:23:19.378Z,102350.03
2023-02-15T11:26:12.388Z,102342.66
2023-02-15T11:29:02.703Z,102340.94
2023-02-15T11:31:56.646Z,102342.13
2023-02-15T11:34:54.278Z,102336.69
2023-02-15T11:37:39.472Z,102324.50
2023-02-15T11:40:33.307Z,102329.06
2023-02-15T11:43:43.706Z,102322.28
2023-02-15T11:46:29.553Z,102318.34
2023-02-15T11:49:36.263Z,102296.91
2023-02-15T11:52:21.708Z,102302.13
2023-02-15T11:55:15.133Z,102314.81
2023-02-15T11:58:29.298Z,102300.31
2023-02-15T12:01:17.704Z,102298.94
2023-02-15T12:04:21.238Z,102295.81
2023-02-15T12:07:26.524Z,102295.31
2023-02-15T12:10:25.591Z,102291.53
2023-02-15T12:13:19.104Z,102289.03
2023-02-15T12:16:13.411Z,102289.47
2023-02-15T12:19:02.147Z,102286.44
2023-02-15T12:21:51.380Z,102279.59
2023-02-15T12:24:47.665Z,102279.38
2023-02-15T12:27:36.396Z,102263.22
2023-02-15T12:30:32.329Z,102255.97
2023-02-15T12:33:36.352Z,102251.22
2023-02-15T12:36:23.414Z,102255.66
2023-02-15T12:39:14.505Z,102257.94
2023-02-15T12:42:04.420Z,102245.25
2023-02-15T12:45:01.322Z,102240.69
2023-02-15T12:47:47.032Z,102238.13
2023-02-15T12:50:35.239Z,102217.19
2023-02-15T12:53:33.069Z,102228.00
2023-02-15T12:56:28.509Z,102220.00
2023-02-15T12:59:23.249Z,102219.16
2023-02-15T13:02:23.413Z,102197.69
2023-02-15T13:05:33.042Z,102203.59
2023-02-15T13:08:28.006Z,102191.16
2023-02-15T13:11:20.533Z,102185.91
2023-02-15T13:14:34.411Z,102198.81
2023-02-15T13:17:27.775Z,102196.78
2023-02-15T13:20:28.093Z,102183.34
2023-02-15T13:23:31.089Z,102170.78
2023-02-15T13:26:21.505Z,102161.91
2023-02-15T13:29:14.316Z,102171.72
2023-02-15T13:32:11.459Z,102159.59
2023-02-15T13:35:02.186Z,102156.56
2023-02-15T13:37:57.039Z,102154.69
2023-02-15T13:40:51.231Z,102153.34
2023-02-15T13:44:00.332Z,102159.66
2023-02-15T13:47:10.994Z,102156.09
2023-02-15T13:50:29.996Z,102146.59
2023-02-15T13:53:25.665Z,102153.50
2023-02-15T13:56:29.768Z,102149.34
2023-02-15T13:59:41.331Z,102145.56
2023-02-15T14:02:38.839Z,102149.28
2023-02-15T14:05:51.341Z,102143.91
2023-02-15T14:08:57.772Z,102136.88
2023-02-15T14:12:22.458Z,102132.69
2023-02-15T14:15:35.599Z,102140.44
2023-02-15T14:19:12.110Z,102139.09
2023-02-15T14:22:03.616Z,102135.81
2023-02-15T14:25:18.296Z,102125.22
2023-02-15T14:28:13.319Z,102130.78
2023-02-15T14:30:58.914Z,102123.56
2023-02-15T14:33:55.691Z,102121.69
2023-02-15T14:36:41.310Z,102118.56
2023-02-15T14:40:08.647Z,102113.94
2023-02-15T14:42:59.542Z,102118.75
2023-02-15T14:45:53.951Z,102115.84
2023-02-15T14:48:49.085Z,102113.09
2023-02-15T14:51:40.756Z,102120.47
2023-02-15T14:54:26.142Z,102109.19
2023-02-15T14:57:12.898Z,102116.16
2023-02-15T15:00:00.994Z,102118.63
2023-02-15T15:02:52.274Z,102127.16
2023-02-15T15:05:49.799Z,102127.72
2023-02-15T15:08:39.547Z,102125.16
2023-02-15T15:11:42.949Z,102120.41
2023-02-15T15:14:35.053Z,102121.63
2023-02-15T15:17:33.290Z,102130.06
2023-02-15T15:20:28.036Z,102125.50
2023-02-15T15:23:16.168Z,102130.09
2023-02-15T15:26:41.633Z,102126.72
2023-02-15T15:29:40.859Z,102115.53
2023-02-15T15:32:31.392Z,102115.69
2023-02-15T15:35:51.260Z,102118.22
2023-02-15T15:39:13.524Z,102116.69
2023-02-15T15:42:35.188Z,102124.47
2023-02-15T15:45:28.959Z,102124.09
2023-02-15T15:48:34.428Z,102122.88
2023-02-15T15:51:25.190Z,102114.34
2023-02-15T15:54:19.683Z,102111.34
2023-02-15T15:57:07.250Z,102119.53
2023-02-15T15:59:54.371Z,102118.81
2023-02-15T16:02:54.198Z,102111.94
2023-02-15T16:05:39.964Z,102119.88
2023-02-15T16:08:31.055Z,102116.75
2023-02-15T16:11:26.264Z,102112.56
2023-02-15T16:14:15.840Z,102125.22
2023-02-15T16:17:05.045Z,102111.47
2023-02-15T16:19:52.274Z,102115.13
2023-02-15T16:22:39.350Z,102108.66
2023-02-15T16:25:39.383Z,102118.16
2023-02-15T16:28:24.992Z,102113.03
2023-02-15T16:31:16.846Z,102114.91
2023-02-15T16:34:16.924Z,102115.13
2023-02-15T16:37:14.044Z,102102.25
2023-02-15T16:39:59.455Z,102110.09
2023-02-15T16:42:45.007Z,102099.81
2023-02-15T16:45:32.992Z,102097.28
2023-02-15T16:48:23.343Z,102089.38
2023-02-15T16:51:09.849Z,102106.00
2023-02-15T16:53:57.527Z,102089.00
2023-02-15T16:56:46.909Z,102103.03
2023-02-15T16:59:45.812Z,102100.28
2023-02-15T17:02:55.713Z,102107.06
2023-02-15T17:05:49.852Z,102107.19
2023-02-15T17:08:43.832Z,102096.59
2023-02-15T17:11:40.753Z,102101.97
2023-02-15T17:14:31.361Z,102098.00
2023-02-15T17:17:17.024Z,102101.50
2023-02-15T17:20:02.899Z,102097.91
2023-02-15T17:22:48.938Z,102101.34
2023-02-15T17:25:40.861Z,102098.78
2023-02-15T17:28:31.938Z,102094.53
2023-02-15T17:31:19.846Z,102091.03
2023-02-15T17:34:05.687Z,102098.00
2023-02-15T17:37:00.066Z,102095.63
2023-02-15T17:39:45.425Z,102092.25
2023-02-15T17:42:31.150Z,102089.56
2023-02-15T17:45:17.363Z,102088.69
2023-02-15T17:48:05.656Z,102087.72
2023-02-15T17:50:51.104Z,102080.13
2023-02-15T17:53:37.060Z,102087.88
2023-02-15T17:56:22.498Z,102081.00
2023-02-15T17:59:07.870Z,102079.47
2023-02-15T18:02:11.774Z,102077.84
2023-02-15T18:05:15.660Z,102083.09
2023-02-15T18:08:19.744Z,102072.59
2023-02-15T18:11:24.139Z,102062.19
2023-02-15T18:14:11.018Z,102056.25
2023-02-15T18:16:56.439Z,102051.03
2023-02-15T18:19:44.314Z,102062.25
2023-02-15T18:22:30.084Z,102061.53
2023-02-15T18:25:18.082Z,102054.66
2023-02-15T18:28:03.504Z,102050.38
2023-02-15T18:30:48.988Z,102048.69
2023-02-15T18:33:37.484Z,102053.91
2023-02-15T18:36:26.164Z,102060.88
2023-02-15T18:39:40.116Z,102054.03
2023-02-15T18:42:35.096Z,102060.06
2023-02-15T18:45:28.378Z,102067.81
2023-02-15T18:48:15.314Z,102064.28
2023-02-15T18:51:01.093Z,102064.31
2023-02-15T18:53:49.996Z,102069.59
2023-02-15T18:56:35.720Z,102060.97
2023-02-15T18:59:22.210Z,102063.56
2023-02-15T19:02:18.123Z,102056.59
2023-02-15T19:05:03.429Z,102054.00
2023-02-15T19:07:50.985Z,102054.88
2023-02-15T19:10:36.338Z,102069.59
2023-02-15T19:13:21.625Z,102060.09
2023-02-15T19:16:08.781Z,102054.03
2023-02-15T19:18:54.504Z,102054.03
2023-02-15T19:21:39.862Z,102058.34
2023-02-15T19:24:36.768Z,102044.44
2023-02-15T19:27:29.884Z,102055.66
2023-02-15T19:30:19.394Z,102052.19
2023-02-15T19:33:05.112Z,102046.16
2023-02-15T19:35:56.115Z,102047.06
2023-02-15T19:38:41.964Z,102042.72
2023-02-15T19:41:31.804Z,102037.56
2023-02-15T19:44:18.193Z,102034.97
2023-02-15T19:47:03.707Z,102033.31
2023-02-15T19:49:49.001Z,102024.66
2023-02-15T19:52:34.327Z,102020.34
2023-02-15T19:55:31.403Z,102022.97
2023-02-15T19:58:19.912Z,102026.44
2023-02-15T20:01:05.715Z,102024.72
2023-02-15T20:03:51.986Z,102021.28
2023-02-15T20:06:37.501Z,102030.78
2023-02-15T20:09:26.333Z,102016.94
2023-02-15T20:12:24.173Z,102023.03
2023-02-15T20:15:23.175Z,102019.56
2023-02-15T20:18:09.314Z,102020.41
2023-02-15T20:20:55.315Z,102026.47
2023-02-15T20:23:40.981Z,102016.06
2023-02-15T20:26:29.674Z,102010.00
2023-02-15T20:29:18.392Z,102011.72
2023-02-15T20:32:04.437Z,102013.47
2023-02-15T20:34:50.987Z,102010.84
2023-02-15T20:37:36.742Z,101998.72
2023-02-15T20:40:25.018Z,102001.31
2023-02-15T20:43:15.133Z,102009.97
2023-02-15T20:46:02.102Z,102015.16
2023-02-15T20:48:48.134Z,102018.66
2023-02-15T20:51:33.841Z,102016.03
2023-02-15T20:54:22.270Z,102026.41
2023-02-15T20:57:12.190Z,102019.56
2023-02-15T20:59:57.771Z,102029.91
2023-02-15T21:02:43.109Z,102023.88
2023-02-15T21:05:35.271Z,102035.06
2023-02-15T21:08:23.592Z,102038.53
2023-02-15T21:11:20.897Z,102044.53
2023-02-15T21:14:06.763Z,102023.81
2023-02-15T21:16:52.731Z,102027.31
2023-02-15T21:19:40.792Z,102020.41
2023-02-15T21:22:27.104Z,102022.16
2023-02-15T21:25:26.212Z,102012.59
2023-02-15T21:28:21.369Z,102012.63
2023-02-15T21:31:16.479Z,102007.41
2023-02-15T21:34:01.801Z,102010.00
2023-02-15T21:36:50.452Z,102002.25
2023-02-15T21:39:36.799Z,101995.34
2023-02-15T21:42:41.105Z,102000.53
2023-02-15T21:45:45.419Z,102007.44
2023-02-15T21:48:30.937Z,102009.19
2023-02-15T21:51:35.024Z,102009.19
2023-02-15T21:54:20.964Z,102010.03
2023-02-15T21:57:06.887Z,102009.19
2023-02-15T21:59:52.617Z,102002.25
2023-02-15T22:02:38.476Z,102017.81
2023-02-15T22:05:27.432Z,101999.63
2023-02-15T22:08:14.392Z,102004.00
2023-02-15T22:10:59.884Z,102007.44
2023-02-15T22:13:48.061Z,102004.84
2023-02-15T22:16:33.714Z,101996.19
2023-02-15T22:19:19.402Z,101993.63
2023-02-15T22:22:05.002Z,101997.06
2023-02-15T22:24:50.289Z,101997.91
2023-02-15T22:27:40.815Z,101998.81
2023-02-15T22:30:29.304Z,101993.59
2023-02-15T22:33:23.579Z,101996.22
2023-02-15T22:36:30.276Z,101998.81
2023-02-15T22:39:15.617Z,101998.81
2023-02-15T22:42:01.344Z,101995.34
2023-02-15T22:44:47.482Z,101992.75
2023-02-15T22:47:36.382Z,101992.72
2023-02-15T22:50:23.884Z,101992.75
2023-02-15T22:53:09.540Z,101991.88
2023-02-15T22:55:56.088Z,101984.13
2023-02-15T22:58:42.323Z,101984.97
2023-02-15T23:01:31.017Z,101984.97
2023-02-15T23:04:20.141Z,101981.50
2023-02-15T23:07:16.792Z,101980.66
2023-02-15T23:10:02.356Z,101982.34
2023-02-15T23:13:12.265Z,101984.09
2023-02-15T23:16:03.890Z,101983.25
2023-02-15T23:18:49.949Z,101973.75
2023-02-15T23:21:35.560Z,101983.25
2023-02-15T23:24:34.430Z,101976.34
2023-02-15T23:27:38.287Z,101975.47
2023-02-15T23:30:24.143Z,101969.41
2023-02-15T23:33:12.596Z,101978.06
2023-02-15T23:35:58.634Z,101979.78
2023-02-15T23:38:44.259Z,101970.28
2023-02-15T23:41:30.360Z,101978.91
2023-02-15T23:44:15.761Z,101978.03
2023-02-15T23:47:01.007Z,101976.31
2023-02-15T23:49:46.815Z,101978.94
2023-02-15T23:52:32.145Z,101974.59
2023-02-15T23:55:18.589Z,101974.59
2023-02-15T23:58:06.265Z,101965.09
